Flight Track Log - Related Links

Times and Time Zones

All times are in EDT time to prevent confusion due to time zone crossing. See the N966QS flight status page for this flight to view local times or setup timezone preferences in your user account.

Time Position Orientation Groundspeed Altitude Reporting Facility
EDT Latitude Longitude Course Direction KTS MPH feet Rate Location/Type
Sun 01:22:28 PM 40.9000 -74.1500 270° West 272 313 5,000  Level New York TRACON
Sun 01:23:28 PM 40.9000 -74.2500 270° West 285 328 6,800 2,278 Climbing New York TRACON
Sun 01:25:06 PM 40.8492 -74.4142 248° West 299 344 11,000 2,302 Climbing New York Center
Sun 01:26:00 PM 40.6100 -74.8269 252° West  Level FlightAware Approximate
Sun 01:26:07 PM 40.7956 -74.5292 238° Southwest 348 400 12,900  Level New York Center
Sun 01:27:08 PM 40.7461 -74.6386 239° Southwest 384 442 14,500 1,932 Climbing New York Center
Sun 01:28:05 PM 40.6814 -74.7719 237° Southwest 402 463 16,700 1,897 Climbing New York Center
Sun 01:29:05 PM 40.6272 -74.8889 239° Southwest 402 463 18,200 1,636 Climbing New York Center
Sun 01:30:06 PM 40.5664 -75.0164 238° Southwest 407 468 20,000 1,869 Climbing New York Center
Sun 01:31:07 PM 40.4911 -75.1400 231° Southwest 424 488 22,000 1,983 Climbing New York Center
Sun 01:32:07 PM 40.4133 -75.2661 231° Southwest 439 505 24,000 1,881 Climbing New York Center
Sun 01:33:05 PM 40.3294 -75.3939 229° Southwest 461 531 25,700 1,664 Climbing New York Center
Sun 01:34:06 PM 40.2467 -75.5300 231° Southwest 472 543 27,300 1,587 Climbing New York Center
Sun 01:35:06 PM 40.1614 -75.6789 233° Southwest 496 571 28,900 1,587 Climbing New York Center
Sun 01:36:07 PM 40.0642 -75.8103 226° Southwest 509 586 30,500 1,587 Climbing New York Center
Sun 01:37:07 PM 39.9608 -75.9328 222° Southwest 509 586 32,100 1,627 Climbing New York Center
Sun 01:38:05 PM 39.8553 -76.0603 223° Southwest 520 598 33,700 1,176 Climbing New York Center
Sun 01:40:26 PM 39.6072 -76.3431 221° Southwest 516 594 36,000 683 Climbing Washington Center
Sun 01:41:27 PM 39.5042 -76.4656 223° Southwest 516 594 36,000  Level Washington Center
Sun 01:42:25 PM 39.3844 -76.6011 221° Southwest 516 594 36,000  Level Washington Center
Sun 01:43:25 PM 39.2811 -76.7203 222° Southwest 511 588 36,000  Level Washington Center
Sun 01:44:26 PM 39.1800 -76.8367 222° Southwest 511 588 36,000  Level Washington Center
Sun 01:45:25 PM 39.0767 -76.9581 222° Southwest 505 581 36,000  Level Washington Center
Sun 01:46:26 PM 38.9731 -77.0761 222° Southwest 505 581 36,000  Level Washington Center
Sun 01:47:27 PM 38.8694 -77.1942 222° Southwest 505 581 36,000  Level Washington Center
Sun 01:48:27 PM 38.7636 -77.3142 221° Southwest 505 581 36,000  Level Washington Center
Sun 01:49:25 PM 38.6575 -77.4339 221° Southwest 505 581 36,000  Level Washington Center
Sun 01:50:26 PM 38.5661 -77.5406 222° Southwest 505 581 36,000  Level Washington Center
Sun 01:51:26 PM 38.4600 -77.6572 221° Southwest 505 581 36,000  Level Washington Center
Sun 01:52:27 PM 38.3558 -77.7733 221° Southwest 499 574 36,000  Level Washington Center
Sun 01:53:27 PM 38.2533 -77.8894 222° Southwest 499 574 36,000  Level Washington Center
Sun 01:54:28 PM 38.1511 -78.0050 222° Southwest 499 574 36,000  Level Washington Center
Sun 01:55:25 PM 38.0508 -78.1178 222° Southwest 499 574 36,000  Level Washington Center
Sun 01:56:26 PM 37.9356 -78.2325 218° Southwest 493 567 36,000  Level Washington Center
Sun 01:57:26 PM 37.8269 -78.3367 217° Southwest 493 567 36,000  Level Washington Center
Sun 01:58:27 PM 37.7203 -78.4350 216° Southwest 493 567 36,000  Level Washington Center
Sun 01:59:27 PM 37.6222 -78.5283 217° Southwest 488 562 36,000  Level Washington Center
Sun 02:00:25 PM 37.5153 -78.6292 217° Southwest 493 567 36,000  Level Washington Center
Sun 02:01:27 PM 37.4064 -78.7292 216° Southwest 493 567 36,000  Level Washington Center
Sun 02:02:27 PM 37.2972 -78.8292 216° Southwest 493 567 36,000  Level Washington Center
Sun 02:03:27 PM 37.1861 -78.9314 216° Southwest 493 567 36,000  Level Washington Center
Sun 02:04:25 PM 37.0681 -79.0433 217° Southwest 493 567 36,000  Level Washington Center
Sun 02:05:25 PM 36.9608 -79.1425 216° Southwest 493 567 36,000  Level Washington Center
Sun 02:06:26 PM 36.8536 -79.2414 216° Southwest 493 567 36,000  Level Washington Center
Sun 02:07:26 PM 36.7461 -79.3428 217° Southwest 493 567 36,000  Level Washington Center
Sun 02:08:26 PM 36.6367 -79.4383 215° Southwest 493 567 36,000  Level Washington Center
Sun 02:09:27 PM 36.5419 -79.5294 218° Southwest 493 567 36,000  Level Washington Center
Sun 02:11:45 PM 36.2900 -79.7525 216° Southwest 464 534 36,000  Level Atlanta Center
Sun 02:12:45 PM 36.1847 -79.8456 216° Southwest 464 534 36,000  Level Atlanta Center
Sun 02:13:45 PM 36.0817 -79.9408 217° Southwest 464 534 36,000  Level Atlanta Center
Sun 02:14:45 PM 35.9653 -80.0161 208° Southwest 464 534 36,000 -450 Level Atlanta Center
Sun 02:15:45 PM 35.8339 -80.0789 201° Southwest 458 527 35,100 -550 Descending Atlanta Center
Sun 02:16:45 PM 35.7125 -80.1383 202° Southwest 472 543 34,900 -750 Descending Atlanta Center
Sun 02:17:45 PM 35.5936 -80.2028 204° Southwest 472 543 33,600 -1,450 Descending Atlanta Center
Sun 02:18:45 PM 35.4725 -80.2647 203° Southwest 467 537 32,000 -1,600 Descending Atlanta Center
Sun 02:19:45 PM 35.3539 -80.3414 208° Southwest 467 537 30,400 -1,650 Descending Atlanta Center
Sun 02:20:45 PM 35.2439 -80.4328 214° Southwest 481 554 28,700 -1,650 Descending Atlanta Center
Sun 02:21:45 PM 35.1422 -80.5236 216° Southwest 476 548 27,100 -1,581 Descending Atlanta Center
Sun 02:23:51 PM 34.9442 -80.7147 218° Southwest 444 511 23,800 -1,613 Descending Jacksonville Center
Sun 02:24:51 PM 34.8964 -80.8500 247° West 428 493 22,100 -1,650 Descending Jacksonville Center
Sun 02:25:51 PM 34.8231 -80.9606 231° Southwest 426 490 20,500 -1,050 Descending Jacksonville Center
Sun 02:26:51 PM 34.7281 -81.0283 210° Southwest 407 468 20,000 -250 Descending Jacksonville Center
Sun 02:27:51 PM 34.6331 -81.0936 209° Southwest 397 457 20,000  Level Jacksonville Center
Sun 02:28:51 PM 34.5422 -81.1583 210° Southwest 387 445 20,000  Level Jacksonville Center
Sun 02:29:51 PM 34.4492 -81.2231 210° Southwest 387 445 20,000  Level Jacksonville Center
Sun 02:30:51 PM 34.3664 -81.2775 209° Southwest 387 445 20,000 -850 Level Jacksonville Center
Sun 02:31:51 PM 34.2653 -81.3550 212° Southwest 398 458 18,300 -1,750 Descending Jacksonville Center
Sun 02:32:51 PM 34.1722 -81.4192 210° Southwest 398 458 16,500 -1,800 Descending Jacksonville Center
Sun 02:33:51 PM 34.0747 -81.4836 209° Southwest 398 458 14,700 -1,800 Descending Jacksonville Center
Sun 02:34:51 PM 33.9897 -81.5425 210° Southwest 384 442 12,900 -1,800 Descending Jacksonville Center
Sun 02:36:00 PM 33.8655 -81.6107 207° Southwest  Level FlightAware Approximate
Sun 02:43:00 PM 33.3667 -81.9500 203° Southwest  Level FlightAware Approximate
Sun 02:44:00 PM 33.3699 -81.9645 203° Southwest  Level Estimated
Sun 02:45:00 PM 33.3699 -81.9645 203° Southwest  Level Estimated
Sun 02:46:00 PM 33.3699 -81.9645 203° Southwest  Level Estimated
Sun 02:47:00 PM 33.3699 -81.9645 203° Southwest  Level Estimated
Sun 02:48:00 PM 33.3699 -81.9645 203° Southwest  Level Estimated
Sun 02:49:00 PM 33.3699 -81.9645 203° Southwest  Level Estimated
Sun 02:50:00 PM 33.3699 -81.9645 203° Southwest  Level Estimated

Login

Don't have an account? Register now (free) for customized features, flight alerts, and more!